createdAt,value
2022-11-05T00:00:37.339Z,25.50
2022-11-05T00:03:49.867Z,25.50
2022-11-05T00:07:02.566Z,25.60
2022-11-05T00:10:04.936Z,25.70
2022-11-05T00:13:19.454Z,25.90
2022-11-05T00:16:42.809Z,25.90
2022-11-05T00:19:37.187Z,25.90
2022-11-05T00:22:49.590Z,25.80
2022-11-05T00:25:43.919Z,25.90
2022-11-05T00:28:38.988Z,26.00
2022-11-05T00:31:34.653Z,26.10
2022-11-05T00:34:29.051Z,26.20
2022-11-05T00:37:23.386Z,26.30
2022-11-05T00:40:17.838Z,26.40
2022-11-05T00:43:30.194Z,26.50
2022-11-05T00:46:24.609Z,26.70
2022-11-05T00:49:31.004Z,26.70
2022-11-05T00:52:43.769Z,26.90
2022-11-05T00:55:43.365Z,27.00
2022-11-05T00:58:38.033Z,27.20
2022-11-05T01:01:33.168Z,27.20
2022-11-05T01:04:27.798Z,27.20
2022-11-05T01:07:22.198Z,27.20
2022-11-05T01:10:16.531Z,27.30
2022-11-05T01:13:13.174Z,27.30
2022-11-05T01:16:10.941Z,27.40
2022-11-05T01:19:06.962Z,27.40
2022-11-05T01:22:01.384Z,27.50
2022-11-05T01:24:56.072Z,27.60
2022-11-05T01:27:50.533Z,27.60
2022-11-05T01:30:44.978Z,27.70
2022-11-05T01:33:39.307Z,27.70
2022-11-05T01:36:33.761Z,27.70
2022-11-05T01:39:29.127Z,27.90
2022-11-05T01:42:25.965Z,28.00
2022-11-05T01:45:26.314Z,28.20
2022-11-05T01:48:26.242Z,28.20
2022-11-05T01:51:28.003Z,28.20
2022-11-05T01:54:27.934Z,28.40
2022-11-05T01:57:22.975Z,28.50
2022-11-05T02:00:18.179Z,28.70
2022-11-05T02:03:14.606Z,28.70
2022-11-05T02:06:10.665Z,28.80
2022-11-05T02:09:40.923Z,28.90
2022-11-05T02:12:36.374Z,29.00
2022-11-05T02:15:53.484Z,29.00
2022-11-05T02:18:57.918Z,29.00
2022-11-05T02:22:22.540Z,29.20
2022-11-05T02:25:53.648Z,29.30
2022-11-05T02:29:15.515Z,29.30
2022-11-05T02:32:33.004Z,29.10
2022-11-05T02:35:54.725Z,28.80
2022-11-05T02:38:58.630Z,28.70
2022-11-05T02:42:23.365Z,28.60
2022-11-05T02:45:23.787Z,28.40
2022-11-05T02:48:37.821Z,28.10
2022-11-05T02:51:45.599Z,28.10
2022-11-05T02:55:01.198Z,28.10
2022-11-05T02:57:55.846Z,28.20
2022-11-05T03:00:54.319Z,28.30
2022-11-05T03:03:51.953Z,28.30
2022-11-05T03:07:23.454Z,28.20
2022-11-05T03:10:38.274Z,28.30
2022-11-05T03:14:00.543Z,28.50
2022-11-05T03:17:19.539Z,28.40
2022-11-05T03:20:21.407Z,28.30
2022-11-05T03:23:47.767Z,28.30
2022-11-05T03:26:51.455Z,28.20
2022-11-05T03:29:50.516Z,28.10
2022-11-05T03:32:52.123Z,28.10
2022-11-05T03:35:52.259Z,28.10
2022-11-05T03:38:50.540Z,28.00
2022-11-05T03:41:50.406Z,27.90
2022-11-05T03:44:50.056Z,27.90
2022-11-05T03:47:47.763Z,27.80
2022-11-05T03:50:57.575Z,27.70
2022-11-05T03:53:59.545Z,27.80
2022-11-05T03:57:15.656Z,27.90
2022-11-05T04:00:12.281Z,28.00
2022-11-05T04:03:06.675Z,27.90
2022-11-05T04:06:19.231Z,27.90
2022-11-05T04:09:31.654Z,27.90
2022-11-05T04:12:44.149Z,27.90
2022-11-05T04:15:58.534Z,27.90
2022-11-05T04:18:52.965Z,27.90
2022-11-05T04:22:05.260Z,28.00
2022-11-05T04:24:59.738Z,28.00
2022-11-05T04:27:54.369Z,28.00
2022-11-05T04:30:48.828Z,28.00
2022-11-05T04:33:43.138Z,28.00
2022-11-05T04:36:37.495Z,28.10
2022-11-05T04:39:31.872Z,28.20
2022-11-05T04:42:26.421Z,28.40
2022-11-05T04:45:20.711Z,28.50
2022-11-05T04:48:16.236Z,28.70
2022-11-05T04:51:10.551Z,28.90
2022-11-05T04:54:05.148Z,29.00
2022-11-05T04:56:59.499Z,29.10
2022-11-05T04:59:55.084Z,29.30
2022-11-05T05:02:50.117Z,29.40
2022-11-05T05:05:44.407Z,29.50
2022-11-05T05:08:38.831Z,29.50
2022-11-05T05:11:33.246Z,29.50
2022-11-05T05:14:27.612Z,29.50
2022-11-05T05:17:22.032Z,29.40
2022-11-05T05:20:34.481Z,29.30
2022-11-05T05:23:28.813Z,29.30
2022-11-05T05:26:23.097Z,29.10
2022-11-05T05:29:18.895Z,29.00
2022-11-05T05:32:13.228Z,29.00
2022-11-05T05:35:08.165Z,28.90
2022-11-05T05:38:02.441Z,29.00
2022-11-05T05:41:00.845Z,29.20
2022-11-05T05:43:55.309Z,29.40
2022-11-05T05:46:49.614Z,29.60
2022-11-05T05:49:43.942Z,29.70
2022-11-05T05:52:38.568Z,29.80
2022-11-05T05:55:32.929Z,29.90
2022-11-05T05:58:29.413Z,29.90
2022-11-05T06:01:24.369Z,29.80
2022-11-05T06:04:18.922Z,29.80
2022-11-05T06:07:13.231Z,29.80
2022-11-05T06:10:08.047Z,29.90
2022-11-05T06:13:02.952Z,29.90
2022-11-05T06:16:05.915Z,30.00
2022-11-05T06:19:00.245Z,30.00
2022-11-05T06:21:54.656Z,29.80
2022-11-05T06:24:48.978Z,29.70
2022-11-05T06:27:44.612Z,29.60
2022-11-05T06:30:39.057Z,29.50
2022-11-05T06:33:33.712Z,29.40
2022-11-05T06:36:28.100Z,29.10
2022-11-05T06:39:22.444Z,28.90
2022-11-05T06:42:18.744Z,29.00
2022-11-05T06:45:13.241Z,29.20
2022-11-05T06:48:07.951Z,29.20
2022-11-05T06:51:02.423Z,29.30
2022-11-05T06:53:57.404Z,29.20
2022-11-05T06:56:51.786Z,29.30
2022-11-05T06:59:46.118Z,29.30
2022-11-05T07:02:40.581Z,29.40
2022-11-05T07:05:37.036Z,29.50
2022-11-05T07:08:37.089Z,29.50
2022-11-05T07:11:31.432Z,29.50
2022-11-05T07:14:25.848Z,29.40
2022-11-05T07:17:20.768Z,29.30
2022-11-05T07:20:15.227Z,29.30
2022-11-05T07:23:15.816Z,29.30
2022-11-05T07:26:10.390Z,29.50
2022-11-05T07:29:04.957Z,29.40
2022-11-05T07:31:59.352Z,29.40
2022-11-05T07:34:53.667Z,29.40
2022-11-05T07:37:49.988Z,29.40
2022-11-05T07:40:44.314Z,29.50
2022-11-05T07:43:38.867Z,29.40
2022-11-05T07:46:33.229Z,29.40
2022-11-05T07:49:27.645Z,29.50
2022-11-05T07:52:21.975Z,29.30
2022-11-05T07:55:17.111Z,29.10
2022-11-05T07:58:12.347Z,29.20
2022-11-05T08:01:08.398Z,29.00
2022-11-05T08:04:02.888Z,28.90
2022-11-05T08:06:57.310Z,28.80
2022-11-05T08:09:51.714Z,28.70
2022-11-05T08:12:46.345Z,28.60
2022-11-05T08:15:41.095Z,28.50
2022-11-05T08:18:35.690Z,28.30
2022-11-05T08:21:30.054Z,28.10
2022-11-05T08:24:24.534Z,28.10
2022-11-05T08:27:18.863Z,28.00
2022-11-05T08:30:14.827Z,27.90
2022-11-05T08:33:12.794Z,27.90
2022-11-05T08:36:08.002Z,27.80
2022-11-05T08:39:02.366Z,27.80
2022-11-05T08:41:57.137Z,27.70
2022-11-05T08:44:51.485Z,27.70
2022-11-05T08:47:45.829Z,27.60
2022-11-05T08:50:41.140Z,27.50
2022-11-05T08:53:35.595Z,27.40
2022-11-05T08:56:30.114Z,27.30
2022-11-05T08:59:24.433Z,27.30
2022-11-05T09:02:18.885Z,27.20
2022-11-05T09:05:13.314Z,27.20
2022-11-05T09:08:15.463Z,27.20
2022-11-05T09:11:09.817Z,27.10
2022-11-05T09:14:04.174Z,27.10
2022-11-05T09:16:58.490Z,27.10
2022-11-05T09:19:52.901Z,27.00
2022-11-05T09:22:47.933Z,27.00
2022-11-05T09:25:42.715Z,26.90
2022-11-05T09:28:37.095Z,26.90
2022-11-05T09:31:31.396Z,26.80
2022-11-05T09:34:26.392Z,26.80
2022-11-05T09:37:20.789Z,26.70
2022-11-05T09:40:19.818Z,26.60
2022-11-05T09:43:31.729Z,26.50
2022-11-05T09:46:33.380Z,26.40
2022-11-05T09:49:27.745Z,26.40
2022-11-05T09:52:31.434Z,26.30
2022-11-05T09:55:35.144Z,26.30
2022-11-05T09:58:40.838Z,26.20
2022-11-05T10:01:38.501Z,26.10
2022-11-05T10:04:35.977Z,25.90
2022-11-05T10:07:33.962Z,25.80
2022-11-05T10:10:41.522Z,25.70
2022-11-05T10:13:41.692Z,25.50
2022-11-05T10:16:43.875Z,25.40
2022-11-05T10:19:52.869Z,25.30
2022-11-05T10:22:49.628Z,25.30
2022-11-05T10:25:52.159Z,25.30
2022-11-05T10:28:46.644Z,25.20
2022-11-05T10:31:41.487Z,25.20
2022-11-05T10:34:38.770Z,25.10
2022-11-05T10:37:38.196Z,25.10
2022-11-05T10:40:49.157Z,25.00
2022-11-05T10:43:56.674Z,25.00
2022-11-05T10:47:11.135Z,25.00
2022-11-05T10:50:15.455Z,24.90
2022-11-05T10:53:24.956Z,24.80
2022-11-05T10:56:32.585Z,24.80
2022-11-05T10:59:31.868Z,24.70
2022-11-05T11:02:28.192Z,24.70
2022-11-05T11:05:26.888Z,24.60
2022-11-05T11:08:25.943Z,24.50
2022-11-05T11:11:39.273Z,24.50
2022-11-05T11:14:36.334Z,24.40
2022-11-05T11:17:33.716Z,24.30
2022-11-05T11:20:31.340Z,24.20
2022-11-05T11:23:25.865Z,24.10
2022-11-05T11:26:20.415Z,24.00
2022-11-05T11:29:23.766Z,24.00
2022-11-05T11:32:21.011Z,23.90
2022-11-05T11:35:23.020Z,23.80
2022-11-05T11:38:19.174Z,23.70
2022-11-05T11:41:13.515Z,23.60
2022-11-05T11:44:22.437Z,23.50
2022-11-05T11:47:21.205Z,23.40
2022-11-05T11:50:43.115Z,23.30
2022-11-05T11:53:37.774Z,23.30
2022-11-05T11:56:44.258Z,23.10
2022-11-05T12:00:07.220Z,23.10
2022-11-05T12:03:01.812Z,23.00
2022-11-05T12:06:18.603Z,22.90
2022-11-05T12:09:21.287Z,22.90
2022-11-05T12:12:36.053Z,22.80
2022-11-05T12:15:45.903Z,22.60
2022-11-05T12:18:55.350Z,22.50
2022-11-05T12:22:15.559Z,22.40
2022-11-05T12:25:44.755Z,22.40
2022-11-05T12:29:17.433Z,22.30
2022-11-05T12:32:23.869Z,22.20
2022-11-05T12:35:36.543Z,22.10
2022-11-05T12:38:59.214Z,22.10
2022-11-05T12:42:17.515Z,22.00
2022-11-05T12:45:24.019Z,21.90
2022-11-05T12:48:36.855Z,21.80
2022-11-05T12:52:02.186Z,21.80
2022-11-05T12:55:04.381Z,21.70
2022-11-05T12:58:11.841Z,21.70
2022-11-05T13:01:19.539Z,21.60
2022-11-05T13:04:22.506Z,21.60
2022-11-05T13:07:24.325Z,21.50
2022-11-05T13:10:41.704Z,21.50
2022-11-05T13:14:00.096Z,21.40
2022-11-05T13:17:29.932Z,21.40
2022-11-05T13:20:28.975Z,21.30
2022-11-05T13:23:45.770Z,21.30
2022-11-05T13:26:46.103Z,21.20
2022-11-05T13:30:08.029Z,21.20
2022-11-05T13:33:28.397Z,21.10
2022-11-05T13:36:53.758Z,21.00
2022-11-05T13:40:05.111Z,20.90
2022-11-05T13:43:20.843Z,20.80
2022-11-05T13:46:40.254Z,20.70
2022-11-05T13:49:42.967Z,20.70
2022-11-05T13:52:49.191Z,20.70
2022-11-05T13:55:52.537Z,20.60
2022-11-05T13:59:07.374Z,20.50
2022-11-05T14:02:13.357Z,20.50
2022-11-05T14:05:09.520Z,20.40
2022-11-05T14:08:17.840Z,20.40
2022-11-05T14:11:35.317Z,20.40
2022-11-05T14:14:34.967Z,20.30
2022-11-05T14:17:57.025Z,20.30
2022-11-05T14:21:04.470Z,20.20
2022-11-05T14:24:20.784Z,20.20
2022-11-05T14:27:15.098Z,20.10
2022-11-05T14:30:48.873Z,20.00
2022-11-05T14:34:11.594Z,19.90
2022-11-05T14:37:27.737Z,19.90
2022-11-05T14:40:28.066Z,19.90
2022-11-05T14:43:25.955Z,19.80
2022-11-05T14:46:20.671Z,19.70
2022-11-05T14:49:31.808Z,19.70
2022-11-05T14:52:26.423Z,19.60
2022-11-05T14:55:37.951Z,19.60
2022-11-05T14:58:38.830Z,19.60
2022-11-05T15:01:36.278Z,19.60
2022-11-05T15:04:33.336Z,19.50
2022-11-05T15:07:39.349Z,19.40
2022-11-05T15:10:38.727Z,19.30
2022-11-05T15:13:55.590Z,19.20
2022-11-05T15:17:00.303Z,19.20
2022-11-05T15:19:55.590Z,19.10
2022-11-05T15:23:02.196Z,19.10
2022-11-05T15:26:30.070Z,19.10
2022-11-05T15:29:28.554Z,19.10
2022-11-05T15:32:27.962Z,19.00
2022-11-05T15:35:31.323Z,19.00
2022-11-05T15:38:36.127Z,18.90
2022-11-05T15:41:35.727Z,18.90
2022-11-05T15:44:31.802Z,18.90
2022-11-05T15:47:36.549Z,18.90
2022-11-05T15:50:31.046Z,18.90
2022-11-05T15:57:05.060Z,18.80
2022-11-05T15:59:59.470Z,18.80
2022-11-05T16:02:57.642Z,18.70
2022-11-05T16:05:52.392Z,18.70
2022-11-05T16:08:53.096Z,18.70
2022-11-05T16:11:47.536Z,18.70
2022-11-05T16:14:43.112Z,18.60
2022-11-05T16:17:47.804Z,18.60
2022-11-05T16:20:42.421Z,18.60
2022-11-05T16:23:50.354Z,18.60
2022-11-05T16:29:59.491Z,18.50
2022-11-05T16:32:54.437Z,18.50
2022-11-05T16:35:50.947Z,18.50
2022-11-05T16:38:45.689Z,18.50
2022-11-05T16:41:45.084Z,18.40
2022-11-05T16:44:39.394Z,18.40
2022-11-05T16:47:33.753Z,18.40
2022-11-05T16:50:33.174Z,18.30
2022-11-05T16:53:27.586Z,18.30
2022-11-05T16:56:23.729Z,18.20
2022-11-05T16:59:18.069Z,18.20
2022-11-05T17:02:13.566Z,18.20
2022-11-05T17:05:22.385Z,18.20
2022-11-05T17:08:16.815Z,18.10
2022-11-05T17:11:15.958Z,18.10
2022-11-05T17:14:15.500Z,18.10
2022-11-05T17:17:09.961Z,18.00
2022-11-05T17:20:04.263Z,18.00
2022-11-05T17:22:59.718Z,18.00
2022-11-05T17:25:56.680Z,17.90
2022-11-05T17:28:51.543Z,17.90
2022-11-05T17:31:45.915Z,17.90
2022-11-05T17:34:41.522Z,17.80
2022-11-05T17:37:35.960Z,17.80
2022-11-05T17:40:30.301Z,17.70
2022-11-05T17:43:24.703Z,17.70
2022-11-05T17:46:20.614Z,17.70
2022-11-05T17:49:14.966Z,17.60
2022-11-05T17:52:09.359Z,17.60
2022-11-05T17:55:04.106Z,17.60
2022-11-05T17:57:58.666Z,17.60
2022-11-05T18:00:53.240Z,17.50
2022-11-05T18:03:47.552Z,17.50
2022-11-05T18:06:44.913Z,17.40
2022-11-05T18:09:39.292Z,17.40
2022-11-05T18:12:34.009Z,17.40
2022-11-05T18:15:28.532Z,17.40
2022-11-05T18:18:23.526Z,17.40
2022-11-05T18:21:18.042Z,17.30
2022-11-05T18:24:12.406Z,17.30
2022-11-05T18:27:06.907Z,17.30
2022-11-05T18:30:01.487Z,17.30
2022-11-05T18:32:55.970Z,17.20
2022-11-05T18:35:50.358Z,17.20
2022-11-05T18:38:44.733Z,17.20
2022-11-05T18:41:39.431Z,17.20
2022-11-05T18:44:39.022Z,17.20
2022-11-05T18:47:34.812Z,17.10
2022-11-05T18:50:29.872Z,17.10
2022-11-05T18:53:24.287Z,17.10
2022-11-05T18:56:20.273Z,17.10
2022-11-05T18:59:35.741Z,17.10
2022-11-05T19:02:30.944Z,17.00
2022-11-05T19:05:29.780Z,17.00
2022-11-05T19:08:24.522Z,17.00
2022-11-05T19:11:21.482Z,16.90
2022-11-05T19:14:15.955Z,16.90
2022-11-05T19:17:11.178Z,16.90
2022-11-05T19:20:06.312Z,16.90
2022-11-05T19:23:00.591Z,16.90
2022-11-05T19:25:54.964Z,16.90
2022-11-05T19:28:50.337Z,16.80
2022-11-05T19:31:44.761Z,16.80
2022-11-05T19:34:39.117Z,16.80
2022-11-05T19:37:33.658Z,16.80
2022-11-05T19:40:28.027Z,16.70
2022-11-05T19:43:22.593Z,16.80
2022-11-05T19:46:19.467Z,16.70
2022-11-05T19:49:13.959Z,16.70
2022-11-05T19:52:08.382Z,16.70
2022-11-05T19:55:05.525Z,16.70
2022-11-05T19:58:02.307Z,16.70
2022-11-05T20:00:57.877Z,16.70
2022-11-05T20:03:52.684Z,16.70
2022-11-05T20:06:47.133Z,16.70
2022-11-05T20:09:41.531Z,16.70
2022-11-05T20:12:37.034Z,16.70
2022-11-05T20:15:31.350Z,16.70
2022-11-05T20:18:26.451Z,16.70
2022-11-05T20:21:21.453Z,16.80
2022-11-05T20:24:23.752Z,16.80
2022-11-05T20:27:19.724Z,16.80
2022-11-05T20:30:14.270Z,16.80
2022-11-05T20:33:08.572Z,16.80
2022-11-05T20:36:06.049Z,16.80
2022-11-05T20:39:01.141Z,16.80
2022-11-05T20:41:57.572Z,16.90
2022-11-05T20:44:51.974Z,16.90
2022-11-05T20:47:46.547Z,16.90
2022-11-05T20:50:47.156Z,17.00
2022-11-05T20:53:42.089Z,17.00
2022-11-05T20:56:36.883Z,17.00
2022-11-05T20:59:31.223Z,17.00
2022-11-05T21:02:25.743Z,17.10
2022-11-05T21:05:20.518Z,17.20
2022-11-05T21:08:15.239Z,17.20
2022-11-05T21:11:10.283Z,17.30
2022-11-05T21:14:04.587Z,17.40
2022-11-05T21:16:58.941Z,17.40
2022-11-05T21:19:54.443Z,17.60
2022-11-05T21:22:48.877Z,17.70
2022-11-05T21:25:44.553Z,17.70
2022-11-05T21:28:41.089Z,17.90
2022-11-05T21:31:38.837Z,18.00
2022-11-05T21:34:33.235Z,18.10
2022-11-05T21:37:27.935Z,18.20
2022-11-05T21:40:22.332Z,18.40
2022-11-05T21:43:24.364Z,18.50
2022-11-05T21:46:23.067Z,18.60
2022-11-05T21:49:17.561Z,18.80
2022-11-05T21:52:31.759Z,19.00
2022-11-05T21:55:44.210Z,19.20
2022-11-05T21:58:56.571Z,19.40
2022-11-05T22:01:51.559Z,19.70
2022-11-05T22:04:49.397Z,19.90
2022-11-05T22:07:43.902Z,20.10
2022-11-05T22:10:38.410Z,20.40
2022-11-05T22:13:32.705Z,20.50
2022-11-05T22:16:27.112Z,20.80
2022-11-05T22:19:22.420Z,21.10
2022-11-05T22:22:17.194Z,21.40
2022-11-05T22:25:12.730Z,21.70
2022-11-05T22:28:07.140Z,22.10
2022-11-05T22:31:01.465Z,22.50
2022-11-05T22:33:55.776Z,22.80
2022-11-05T22:36:50.324Z,23.20
2022-11-05T22:39:44.715Z,23.60
2022-11-05T22:42:40.133Z,24.10
2022-11-05T22:45:37.559Z,24.50
2022-11-05T22:48:32.626Z,24.90
2022-11-05T22:51:30.205Z,25.10
2022-11-05T22:54:24.663Z,25.40
2022-11-05T22:57:19.746Z,25.60
2022-11-05T23:00:19.178Z,25.80
2022-11-05T23:03:13.618Z,26.10
2022-11-05T23:06:30.522Z,26.30
2022-11-05T23:09:45.559Z,26.40
2022-11-05T23:12:40.021Z,26.70
2022-11-05T23:15:52.614Z,26.80
2022-11-05T23:19:05.054Z,26.90
2022-11-05T23:22:17.698Z,27.00
2022-11-05T23:25:21.127Z,27.10
2022-11-05T23:28:16.087Z,27.20
2022-11-05T23:31:29.378Z,27.30
2022-11-05T23:34:23.764Z,27.40
2022-11-05T23:37:36.226Z,27.50
2022-11-05T23:40:32.560Z,27.60
2022-11-05T23:43:45.074Z,27.50
2022-11-05T23:46:57.613Z,27.60
2022-11-05T23:49:51.959Z,27.70
2022-11-05T23:52:46.455Z,27.90
2022-11-05T23:55:41.141Z,28.00
2022-11-05T23:58:36.461Z,28.00
